AFL5753 UWGG-ULLI
Flight info
| Callsign | AFL5753 |
|---|---|
| Flight time | N/A |
| Altitude | 32000 |
| Route | LARNO2S LARNO T784 ROKUR P164 PINOK N50 GENPA GENPA1V |
| Aircraft | MD88/M-SDFGIRWY/C |
Departure
| Time | 2026-05-01 07:49 |
|---|---|
| Airport | Nizhny Novgorod / Strigino International Airport (UWGG) |
Arrival
| Time | N/A |
|---|---|
| Airport | Pulkovo Airport (ULLI) |
| Time | Latitude | Longitude | Altitude | Speed | Heading |
|---|---|---|---|---|---|
| 2026-05-01 07:46 | 56.22030 | 43.78665 | 267 ft | 0 kts | 192° |
| 2026-05-01 07:46 | 56.22014 | 43.78658 | 267 ft | 6 kts | 192° |
| 2026-05-01 07:47 | 56.21948 | 43.78633 | 267 ft | 8 kts | 196° |
| 2026-05-01 07:47 | 56.21919 | 43.78585 | 267 ft | 10 kts | 249° |
| 2026-05-01 07:47 | 56.21934 | 43.78394 | 267 ft | 12 kts | 282° |
| 2026-05-01 07:47 | 56.21946 | 43.78296 | 267 ft | 12 kts | 282° |
| 2026-05-01 07:48 | 56.21981 | 43.78222 | 267 ft | 11 kts | 8° |
| 2026-05-01 07:48 | 56.22475 | 43.78389 | 266 ft | 98 kts | 11° |
| 2026-05-01 07:48 | 56.23000 | 43.78580 | 270 ft | 133 kts | 12° |
| 2026-05-01 07:49 | 56.24053 | 43.78962 | 365 ft | 168 kts | 11° |
| 2026-05-01 07:49 | 56.26576 | 43.79865 | 1123 ft | 203 kts | 12° |
| 2026-05-01 07:49 | 56.28064 | 43.80380 | 1428 ft | 231 kts | 13° |
| 2026-05-01 07:50 | 56.29720 | 43.80994 | 1976 ft | 246 kts | 12° |
| 2026-05-01 07:50 | 56.33075 | 43.82313 | 3737 ft | 250 kts | 12° |
| 2026-05-01 07:50 | 56.34790 | 43.82942 | 4715 ft | 251 kts | 11° |
| 2026-05-01 07:51 | 56.36465 | 43.83526 | 5296 ft | 245 kts | 11° |
| 2026-05-01 07:51 | 56.38185 | 43.84225 | 5717 ft | 262 kts | 19° |
| 2026-05-01 07:51 | 56.39731 | 43.86013 | 6232 ft | 274 kts | 49° |
| 2026-05-01 07:52 | 56.40625 | 43.92704 | 7475 ft | 292 kts | 96° |
| 2026-05-01 07:52 | 56.40334 | 43.96363 | 8160 ft | 297 kts | 97° |
| 2026-05-01 07:52 | 56.40003 | 44.00068 | 8826 ft | 301 kts | 99° |
| 2026-05-01 07:53 | 56.39262 | 44.07368 | 9729 ft | 285 kts | 100° |
| 2026-05-01 07:53 | 56.38911 | 44.10905 | 9875 ft | 288 kts | 99° |
| 2026-05-01 07:53 | 56.38555 | 44.14531 | 9948 ft | 302 kts | 104° |
| 2026-05-01 07:53 | 56.37642 | 44.17950 | 9984 ft | 304 kts | 131° |
| 2026-05-01 07:54 | 56.33878 | 44.21012 | 10011 ft | 322 kts | 183° |
| 2026-05-01 07:55 | 56.27271 | 44.16173 | 11203 ft | 356 kts | 205° |
| 2026-05-01 07:55 | 56.22706 | 44.12857 | 12902 ft | 351 kts | 200° |
| 2026-05-01 07:56 | 56.15684 | 44.08711 | 14749 ft | 358 kts | 197° |
| 2026-05-01 07:56 | 56.11054 | 44.05435 | 15984 ft | 364 kts | 217° |
| 2026-05-01 07:57 | 56.09335 | 44.02080 | 16646 ft | 369 kts | 234° |
| 2026-05-01 07:57 | 56.06613 | 43.94198 | 17834 ft | 377 kts | 237° |
| 2026-05-01 07:58 | 56.03943 | 43.86044 | 19011 ft | 382 kts | 237° |
| 2026-05-01 07:58 | 56.01191 | 43.77794 | 20069 ft | 390 kts | 236° |
| 2026-05-01 07:59 | 55.98331 | 43.69501 | 21134 ft | 395 kts | 235° |
| 2026-05-01 07:59 | 55.95399 | 43.61109 | 22073 ft | 402 kts | 234° |
| 2026-05-01 08:00 | 55.89401 | 43.43948 | 23898 ft | 414 kts | 235° |
| 2026-05-01 08:01 | 55.84733 | 43.30752 | 25002 ft | 426 kts | 235° |
| 2026-05-01 08:01 | 55.83164 | 43.26332 | 25349 ft | 430 kts | 236° |
| 2026-05-01 08:01 | 55.81799 | 43.21574 | 25696 ft | 437 kts | 251° |
| 2026-05-01 08:02 | 55.81775 | 43.10728 | 26392 ft | 448 kts | 288° |
| 2026-05-01 08:02 | 55.83126 | 43.05826 | 26891 ft | 448 kts | 303° |
| 2026-05-01 08:03 | 55.86844 | 42.96921 | 27980 ft | 442 kts | 307° |
| 2026-05-01 08:03 | 55.88678 | 42.92628 | 28435 ft | 440 kts | 307° |
| 2026-05-01 08:03 | 55.92289 | 42.83844 | 29183 ft | 438 kts | 305° |
| 2026-05-01 08:04 | 55.95765 | 42.74936 | 29992 ft | 435 kts | 304° |
| 2026-05-01 08:04 | 55.99186 | 42.66073 | 30621 ft | 433 kts | 305° |
| 2026-05-01 08:05 | 56.02616 | 42.57188 | 31136 ft | 432 kts | 306° |
| 2026-05-01 08:05 | 56.04335 | 42.52742 | 31330 ft | 434 kts | 305° |
| 2026-05-01 08:05 | 56.06016 | 42.48253 | 31544 ft | 435 kts | 304° |
| 2026-05-01 08:06 | 56.09301 | 42.39130 | 31891 ft | 437 kts | 303° |
| 2026-05-01 08:07 | 56.15876 | 42.20941 | 32004 ft | 433 kts | 304° |
| 2026-05-01 08:08 | 56.20891 | 42.07452 | 32010 ft | 432 kts | 307° |
| 2026-05-01 08:09 | 56.28250 | 41.90439 | 32011 ft | 435 kts | 309° |
| 2026-05-01 08:09 | 56.31942 | 41.81838 | 32016 ft | 433 kts | 308° |
| 2026-05-01 08:10 | 56.39018 | 41.65088 | 32020 ft | 432 kts | 308° |
| 2026-05-01 08:11 | 56.46291 | 41.47808 | 32020 ft | 432 kts | 308° |
| 2026-05-01 08:12 | 56.51686 | 41.34708 | 32019 ft | 434 kts | 308° |
| 2026-05-01 08:13 | 56.57118 | 41.21649 | 32019 ft | 431 kts | 309° |
| 2026-05-01 08:13 | 56.62258 | 41.08277 | 32034 ft | 434 kts | 294° |
| 2026-05-01 08:14 | 56.64096 | 40.97782 | 32029 ft | 438 kts | 288° |
| 2026-05-01 08:14 | 56.65764 | 40.87188 | 32027 ft | 440 kts | 289° |
| 2026-05-01 08:15 | 56.68420 | 40.71217 | 32027 ft | 438 kts | 290° |
| 2026-05-01 08:16 | 56.70240 | 40.60676 | 32028 ft | 437 kts | 290° |
| 2026-05-01 08:16 | 56.72060 | 40.50105 | 32030 ft | 438 kts | 290° |
| 2026-05-01 08:17 | 56.73871 | 40.39506 | 32029 ft | 439 kts | 290° |
| 2026-05-01 08:17 | 56.75629 | 40.28833 | 32028 ft | 440 kts | 289° |
| 2026-05-01 08:18 | 56.77342 | 40.18113 | 32028 ft | 441 kts | 289° |
| 2026-05-01 08:19 | 56.80901 | 39.96796 | 32039 ft | 438 kts | 290° |
| 2026-05-01 08:19 | 56.82681 | 39.86145 | 32046 ft | 439 kts | 290° |
| 2026-05-01 08:20 | 56.84393 | 39.75405 | 32047 ft | 441 kts | 290° |
| 2026-05-01 08:20 | 56.86096 | 39.64619 | 32047 ft | 441 kts | 290° |
| 2026-05-01 08:21 | 56.87803 | 39.53948 | 32047 ft | 440 kts | 290° |
| 2026-05-01 08:21 | 56.89520 | 39.43231 | 32054 ft | 439 kts | 290° |
| 2026-05-01 08:22 | 56.91244 | 39.32485 | 32056 ft | 442 kts | 290° |
| 2026-05-01 08:22 | 56.92971 | 39.21696 | 32054 ft | 441 kts | 291° |
| 2026-05-01 08:23 | 56.94686 | 39.10897 | 32055 ft | 441 kts | 290° |
| 2026-05-01 08:23 | 56.96332 | 39.00070 | 32056 ft | 441 kts | 290° |
| 2026-05-01 08:24 | 56.97974 | 38.89234 | 32046 ft | 442 kts | 290° |
| 2026-05-01 08:24 | 56.99626 | 38.78473 | 32048 ft | 441 kts | 291° |
| 2026-05-01 08:25 | 57.01296 | 38.67638 | 32048 ft | 441 kts | 291° |
| 2026-05-01 08:25 | 57.02947 | 38.56823 | 32042 ft | 440 kts | 290° |
| 2026-05-01 08:26 | 57.04603 | 38.46009 | 32039 ft | 440 kts | 291° |
| 2026-05-01 08:26 | 57.06232 | 38.35151 | 32039 ft | 441 kts | 290° |
| 2026-05-01 08:27 | 57.07816 | 38.24259 | 32038 ft | 441 kts | 290° |
| 2026-05-01 08:27 | 57.09397 | 38.13363 | 32038 ft | 440 kts | 291° |
| 2026-05-01 08:28 | 57.10989 | 38.02485 | 32038 ft | 440 kts | 291° |
| 2026-05-01 08:28 | 57.12589 | 37.91604 | 32033 ft | 442 kts | 291° |
| 2026-05-01 08:29 | 57.12847 | 37.89837 | 32032 ft | 442 kts | 291° |